KMTW/MTW METAR and TAF weather

Enter ICAO airport designator
Station Type Date Time Source
KMTW METAR 2024/05/28 22:56 UTC NOAA

KMTW 282256Z AUTO 32004KT 10SM -RA OVC065 13/11 A3001 RMK AO2 SLP164 P0004 T01280111


Station Type Date Time Source
KMTW Decoded METAR 2024/05/28 22:56 UTC NOAA

Manitowoc, Manitowoc County Airport, WI, United States (KMTW) 44-08N 087-41W
May 28, 2024 - 06:56 PM EDT / 2024.05.28 2256 UTC
Wind: from the NW (320 degrees) at 5 MPH (4 KT):0
Visibility: 10 mile(s):0
Sky conditions: overcast
Weather: light rain
Precipitation last hour: 0.04 inches
Temperature: 55.0 F (12.8 C)
Dew Point: 52.0 F (11.1 C)
Relative Humidity: 89%
Pressure (altimeter): 30.01 in. Hg (1016 hPa)
ob: KMTW 282256Z AUTO 32004KT 10SM -RA OVC065 13/11 A3001 RMK AO2 SLP164 P0004 T01280111
cycle: 23

Station Type Date Time Source
KMTW TAF 2024/05/28 22:58 UTC NOAA